METAR Data
IDs: Format: Raw Decoded Include TAF

Data at: 0249 UTC 25 Feb 2021

EKOD 242234Z 20009KT CAVOK 12/11 Q1023